createdAt,value
2023-01-13T00:01:10.141Z,97952.28
2023-01-13T00:03:37.076Z,97955.72
2023-01-13T00:06:04.793Z,97957.75
2023-01-13T00:08:31.792Z,97956.97
2023-01-13T00:10:58.504Z,97964.84
2023-01-13T00:13:28.045Z,97959.38
2023-01-13T00:16:04.334Z,97967.84
2023-01-13T00:18:31.348Z,97956.78
2023-01-13T00:21:01.938Z,97951.28
2023-01-13T00:23:30.527Z,97950.69
2023-01-13T00:26:02.358Z,97950.53
2023-01-13T00:28:29.572Z,97941.69
2023-01-13T00:30:59.103Z,97944.69
2023-01-13T00:33:25.959Z,97941.19
2023-01-13T00:36:00.196Z,97930.72
2023-01-13T00:38:27.469Z,97933.34
2023-01-13T00:40:59.116Z,97928.84
2023-01-13T00:43:27.231Z,97938.38
2023-01-13T00:45:54.540Z,97932.28
2023-01-13T00:48:23.181Z,97918.31
2023-01-13T00:51:00.074Z,97914.03
2023-01-13T00:53:27.614Z,97921.94
2023-01-13T00:56:06.917Z,97913.63
2023-01-13T00:58:35.050Z,97902.28
2023-01-13T01:01:03.513Z,97895.03
2023-01-13T01:03:30.604Z,97901.16
2023-01-13T01:05:58.091Z,97902.13
2023-01-13T01:08:24.672Z,97890.63
2023-01-13T01:11:01.177Z,97903.00
2023-01-13T01:13:27.804Z,97898.69
2023-01-13T01:15:54.408Z,97893.44
2023-01-13T01:18:21.060Z,97898.69
2023-01-13T01:20:47.640Z,97896.06
2023-01-13T01:23:14.339Z,97875.03
2023-01-13T01:25:40.947Z,97886.19
2023-01-13T01:28:07.628Z,97880.13
2023-01-13T01:30:34.405Z,97880.94
2023-01-13T01:33:03.226Z,97877.50
2023-01-13T01:35:29.846Z,97884.41
2023-01-13T01:37:56.409Z,97882.19
2023-01-13T01:40:23.000Z,97876.13
2023-01-13T01:43:07.893Z,97881.00
2023-01-13T01:45:34.650Z,97867.47
2023-01-13T01:48:04.406Z,97872.13
2023-01-13T01:50:31.681Z,97880.41
2023-01-13T01:53:14.173Z,97874.38
2023-01-13T01:55:41.432Z,97860.00
2023-01-13T01:58:16.621Z,97865.06
2023-01-13T02:00:43.405Z,97873.59
2023-01-13T02:03:11.422Z,97866.31
2023-01-13T02:05:39.052Z,97871.53
2023-01-13T02:08:08.161Z,97863.22
2023-01-13T02:10:35.409Z,97868.31
2023-01-13T02:13:06.926Z,97865.28
2023-01-13T02:15:56.477Z,97862.84
2023-01-13T02:18:45.036Z,97845.47
2023-01-13T02:21:41.622Z,97843.47
2023-01-13T02:24:52.461Z,97843.25
2023-01-13T02:27:49.433Z,97835.56
2023-01-13T02:30:46.839Z,97825.44
2023-01-13T02:33:38.338Z,97819.78
2023-01-13T02:36:19.907Z,97816.56
2023-01-13T02:38:54.514Z,97803.78
2023-01-13T02:41:54.004Z,97809.06
2023-01-13T02:44:26.938Z,97818.38
2023-01-13T02:47:06.665Z,97796.28
2023-01-13T02:49:41.121Z,97799.56
2023-01-13T02:52:12.346Z,97802.56
2023-01-13T02:54:43.545Z,97810.25
2023-01-13T02:57:13.062Z,97795.50
2023-01-13T02:59:41.012Z,97798.31
2023-01-13T03:02:13.014Z,97781.91
2023-01-13T03:04:54.447Z,97792.03
2023-01-13T03:07:53.425Z,97773.84
2023-01-13T03:10:22.897Z,97791.03
2023-01-13T03:13:06.731Z,97791.66
2023-01-13T03:16:00.944Z,97789.03
2023-01-13T03:19:10.973Z,97788.22
2023-01-13T03:21:44.127Z,97790.44
2023-01-13T03:24:17.164Z,97772.63
2023-01-13T03:26:48.884Z,97787.59
2023-01-13T03:29:21.408Z,97780.50
2023-01-13T03:32:18.582Z,97784.75
2023-01-13T03:35:02.753Z,97779.28
2023-01-13T03:37:34.813Z,97776.47
2023-01-13T03:40:07.575Z,97785.19
2023-01-13T03:42:37.060Z,97759.47
2023-01-13T03:45:18.132Z,97761.47
2023-01-13T03:47:53.058Z,97768.38
2023-01-13T03:50:30.232Z,97767.53
2023-01-13T03:53:09.813Z,97767.97
2023-01-13T03:55:40.929Z,97764.53
2023-01-13T03:58:16.565Z,97760.69
2023-01-13T04:01:05.632Z,97754.63
2023-01-13T04:03:58.196Z,97753.19
2023-01-13T04:06:50.716Z,97755.63
2023-01-13T04:09:34.547Z,97741.91
2023-01-13T04:12:08.164Z,97744.91
2023-01-13T04:14:35.747Z,97745.94
2023-01-13T04:17:02.205Z,97755.84
2023-01-13T04:19:28.631Z,97749.56
2023-01-13T04:21:55.074Z,97735.19
2023-01-13T04:24:21.503Z,97742.69
2023-01-13T04:26:47.972Z,97737.63
2023-01-13T04:29:15.742Z,97744.47
2023-01-13T04:31:42.921Z,97743.50
2023-01-13T04:34:12.374Z,97754.63
2023-01-13T04:36:38.841Z,97748.94
2023-01-13T04:39:05.333Z,97746.75
2023-01-13T04:41:51.818Z,97752.19
2023-01-13T04:44:18.298Z,97743.25
2023-01-13T04:46:44.745Z,97758.59
2023-01-13T04:49:11.199Z,97750.94
2023-01-13T04:51:37.659Z,97757.19
2023-01-13T04:54:04.298Z,97735.34
2023-01-13T04:56:30.914Z,97739.81
2023-01-13T04:58:57.385Z,97730.09
2023-01-13T05:01:23.947Z,97737.00
2023-01-13T05:03:50.514Z,97739.00
2023-01-13T05:06:16.956Z,97738.00
2023-01-13T05:08:43.394Z,97727.06
2023-01-13T05:11:28.473Z,97723.78
2023-01-13T05:14:13.237Z,97734.56
2023-01-13T05:16:58.339Z,97731.69
2023-01-13T05:19:24.754Z,97727.03
2023-01-13T05:22:09.820Z,97724.22
2023-01-13T05:24:54.539Z,97726.22
2023-01-13T05:27:20.993Z,97741.19
2023-01-13T05:29:47.453Z,97744.59
2023-01-13T05:32:13.891Z,97748.81
2023-01-13T05:34:40.401Z,97747.59
2023-01-13T05:37:08.182Z,97764.53
2023-01-13T05:39:53.328Z,97776.88
2023-01-13T05:42:38.084Z,97773.44
2023-01-13T05:45:04.918Z,97772.69
2023-01-13T05:47:32.332Z,97803.16
2023-01-13T05:49:58.820Z,97836.19
2023-01-13T05:52:25.282Z,97840.81
2023-01-13T05:54:51.782Z,97846.47
2023-01-13T05:57:18.236Z,97843.38
2023-01-13T05:59:44.724Z,97860.66
2023-01-13T06:02:11.187Z,97857.97
2023-01-13T06:04:37.702Z,97863.41
2023-01-13T06:07:04.179Z,97863.34
2023-01-13T06:09:30.706Z,97865.81
2023-01-13T06:11:57.328Z,97869.84
2023-01-13T06:14:23.909Z,97871.63
2023-01-13T06:16:50.349Z,97874.41
2023-01-13T06:19:16.800Z,97874.38
2023-01-13T06:21:46.298Z,97876.00
2023-01-13T06:24:12.711Z,97874.31
2023-01-13T06:26:40.880Z,97873.13
2023-01-13T06:29:09.048Z,97873.06
2023-01-13T06:31:39.542Z,97880.00
2023-01-13T06:34:11.876Z,97875.22
2023-01-13T06:36:46.498Z,97882.50
2023-01-13T06:39:18.045Z,97871.88
2023-01-13T06:42:05.758Z,97874.28
2023-01-13T06:44:32.564Z,97881.03
2023-01-13T06:46:59.161Z,97884.81
2023-01-13T06:49:25.697Z,97888.00
2023-01-13T06:51:52.143Z,97891.19
2023-01-13T06:54:18.616Z,97894.25
2023-01-13T06:56:45.107Z,97886.19
2023-01-13T06:59:11.553Z,97886.78
2023-01-13T07:01:38.168Z,97891.19
2023-01-13T07:04:04.843Z,97888.72
2023-01-13T07:06:31.395Z,97889.16
2023-01-13T07:08:57.813Z,97899.28
2023-01-13T07:11:25.002Z,97895.56
2023-01-13T07:14:10.023Z,97884.81
2023-01-13T07:16:36.529Z,97880.38
2023-01-13T07:19:03.103Z,97889.03
2023-01-13T07:21:29.599Z,97897.66
2023-01-13T07:23:56.184Z,97891.72
2023-01-13T07:26:22.674Z,97880.66
2023-01-13T07:28:49.180Z,97871.91
2023-01-13T07:31:18.404Z,97872.59
2023-01-13T07:33:45.382Z,97894.94
2023-01-13T07:36:12.472Z,97899.59
2023-01-13T07:38:39.896Z,97915.81
2023-01-13T07:41:25.532Z,97912.84
2023-01-13T07:43:52.454Z,97925.16
2023-01-13T07:46:19.216Z,97926.31
2023-01-13T07:48:47.568Z,97938.19
2023-01-13T07:51:14.070Z,97937.56
2023-01-13T07:53:40.643Z,97949.31
2023-01-13T07:56:07.949Z,97927.50
2023-01-13T07:58:35.470Z,97929.13
2023-01-13T08:01:08.075Z,97935.50
2023-01-13T08:03:34.630Z,97941.97
2023-01-13T08:06:01.884Z,97938.53
2023-01-13T08:08:28.336Z,97946.28
2023-01-13T08:10:54.833Z,97951.34
2023-01-13T08:13:21.405Z,97943.91
2023-01-13T08:15:50.156Z,97949.53
2023-01-13T08:18:20.024Z,97953.78
2023-01-13T08:20:48.523Z,97953.16
2023-01-13T08:23:15.929Z,97979.84
2023-01-13T08:25:42.417Z,97979.84
2023-01-13T08:28:09.056Z,97979.66
2023-01-13T08:30:35.573Z,97974.03
2023-01-13T08:33:02.126Z,97969.50
2023-01-13T08:35:28.585Z,97967.22
2023-01-13T08:37:55.008Z,97964.94
2023-01-13T08:40:22.245Z,97964.13
2023-01-13T08:42:48.971Z,97966.25
2023-01-13T08:45:15.619Z,97975.06
2023-01-13T08:47:57.186Z,97977.31
2023-01-13T08:50:24.424Z,97990.25
2023-01-13T08:52:51.041Z,97989.00
2023-01-13T08:55:17.492Z,97994.81
2023-01-13T08:57:44.140Z,97999.06
2023-01-13T09:00:11.568Z,98010.22
2023-01-13T09:02:40.917Z,98007.97
2023-01-13T09:05:08.900Z,98004.09
2023-01-13T09:07:36.884Z,98015.94
2023-01-13T09:10:06.662Z,98020.31
2023-01-13T09:12:51.798Z,98020.22
2023-01-13T09:15:18.848Z,98012.88
2023-01-13T09:17:45.502Z,98011.25
2023-01-13T09:20:12.686Z,98017.75
2023-01-13T09:22:40.606Z,98027.31
2023-01-13T09:25:07.813Z,98030.06
2023-01-13T09:27:34.357Z,98040.78
2023-01-13T09:30:00.831Z,98030.34
2023-01-13T09:32:27.345Z,98027.56
2023-01-13T09:35:02.944Z,98042.84
2023-01-13T09:37:40.648Z,98041.22
2023-01-13T09:40:12.777Z,98038.97
2023-01-13T09:43:07.462Z,98031.72
2023-01-13T09:45:47.915Z,98027.22
2023-01-13T09:48:29.726Z,98031.09
2023-01-13T09:51:18.717Z,98036.84
2023-01-13T09:53:55.753Z,98034.75
2023-01-13T09:56:26.249Z,98039.19
2023-01-13T09:58:58.309Z,98046.34
2023-01-13T10:01:41.906Z,98050.91
2023-01-13T10:04:13.356Z,98046.34
2023-01-13T10:06:54.490Z,98058.34
2023-01-13T10:09:30.404Z,98071.00
2023-01-13T10:12:24.156Z,98053.09
2023-01-13T10:14:57.216Z,98065.41
2023-01-13T10:17:43.491Z,98067.94
2023-01-13T10:20:31.693Z,98067.06
2023-01-13T10:23:23.508Z,98072.09
2023-01-13T10:26:26.830Z,98075.25
2023-01-13T10:28:57.479Z,98075.94
2023-01-13T10:31:25.332Z,98075.13
2023-01-13T10:34:04.061Z,98072.13
2023-01-13T10:36:30.621Z,98066.31
2023-01-13T10:39:08.875Z,98067.69
2023-01-13T10:41:36.252Z,98058.97
2023-01-13T10:44:07.704Z,98067.50
2023-01-13T10:46:51.506Z,98081.16
2023-01-13T10:49:38.639Z,98077.56
2023-01-13T10:52:26.231Z,98074.88
2023-01-13T10:54:54.417Z,98077.28
2023-01-13T10:57:23.710Z,98080.59
2023-01-13T10:59:51.082Z,98073.72
2023-01-13T11:02:32.489Z,98075.66
2023-01-13T11:05:16.243Z,98077.69
2023-01-13T11:07:50.505Z,98068.44
2023-01-13T11:10:17.070Z,98075.16
2023-01-13T11:13:05.474Z,98083.41
2023-01-13T11:15:44.159Z,98080.75
2023-01-13T11:18:43.578Z,98081.13
2023-01-13T11:21:23.086Z,98086.28
2023-01-13T11:24:02.471Z,98084.06
2023-01-13T11:26:41.315Z,98099.38
2023-01-13T11:29:18.322Z,98103.13
2023-01-13T11:31:55.807Z,98094.72
2023-01-13T11:34:33.920Z,98102.38
2023-01-13T11:37:03.502Z,98095.69
2023-01-13T11:40:08.589Z,98095.41
2023-01-13T11:43:03.827Z,98102.81
2023-01-13T11:45:40.993Z,98097.19
2023-01-13T11:48:20.845Z,98107.22
2023-01-13T11:50:53.817Z,98104.16
2023-01-13T11:53:36.986Z,98101.09
2023-01-13T11:56:31.478Z,98105.16
2023-01-13T11:59:40.736Z,98103.59
2023-01-13T12:02:19.317Z,98110.53
2023-01-13T12:05:36.232Z,98105.84
2023-01-13T12:08:18.155Z,98108.94
2023-01-13T12:10:50.231Z,98107.84
2023-01-13T12:13:56.448Z,98110.91
2023-01-13T12:16:26.930Z,98118.69
2023-01-13T12:19:11.814Z,98114.59
2023-01-13T12:21:46.947Z,98108.88
2023-01-13T12:24:22.929Z,98108.88
2023-01-13T12:27:13.008Z,98106.25
2023-01-13T12:29:40.107Z,98096.22
2023-01-13T12:32:16.429Z,98104.22
2023-01-13T12:34:52.146Z,98106.22
2023-01-13T12:37:34.701Z,98109.03
2023-01-13T12:40:22.403Z,98097.75
2023-01-13T12:43:30.233Z,98100.56
2023-01-13T12:46:19.464Z,98101.28
2023-01-13T12:48:54.870Z,98104.59
2023-01-13T12:51:22.916Z,98109.78
2023-01-13T12:53:49.614Z,98096.72
2023-01-13T12:56:31.287Z,98096.13
2023-01-13T12:59:16.464Z,98104.16
2023-01-13T13:01:44.867Z,98093.97
2023-01-13T13:04:13.792Z,98096.31
2023-01-13T13:07:26.820Z,98135.00
2023-01-13T13:10:01.264Z,98163.56
2023-01-13T13:12:49.557Z,98164.84
2023-01-13T13:15:27.772Z,98167.28
2023-01-13T13:18:16.900Z,98156.47
2023-01-13T13:21:02.375Z,98148.47
2023-01-13T13:23:33.050Z,98168.84
2023-01-13T13:26:11.696Z,98150.09
2023-01-13T13:28:45.706Z,98165.47
2023-01-13T13:31:19.765Z,98169.72
2023-01-13T13:34:10.115Z,98176.31
2023-01-13T13:36:48.484Z,98187.06
2023-01-13T13:39:49.051Z,98181.53
2023-01-13T13:42:36.253Z,98191.88
2023-01-13T13:45:30.846Z,98193.25
2023-01-13T13:47:57.485Z,98189.63
2023-01-13T13:50:24.088Z,98188.41
2023-01-13T13:52:58.694Z,98193.47
2023-01-13T13:55:27.547Z,98200.19
2023-01-13T13:57:55.869Z,98206.41
2023-01-13T14:00:27.074Z,98202.81
2023-01-13T14:03:00.440Z,98204.03
2023-01-13T14:05:28.262Z,98211.66
2023-01-13T14:08:17.352Z,98202.94
2023-01-13T14:10:46.252Z,98205.94
2023-01-13T14:13:15.695Z,98204.66
2023-01-13T14:15:42.322Z,98201.97
2023-01-13T14:18:18.657Z,98196.72
2023-01-13T14:20:53.263Z,98196.88
2023-01-13T14:23:24.763Z,98194.53
2023-01-13T14:25:52.372Z,98193.78
2023-01-13T14:28:29.092Z,98184.38
2023-01-13T14:30:56.752Z,98189.69
2023-01-13T14:33:33.961Z,98192.84
2023-01-13T14:36:17.416Z,98199.84
2023-01-13T14:38:47.458Z,98209.00
2023-01-13T14:41:24.151Z,98217.78
2023-01-13T14:43:54.150Z,98225.94
2023-01-13T14:46:23.236Z,98225.13
2023-01-13T14:49:01.274Z,98226.56
2023-01-13T14:51:29.304Z,98235.63
2023-01-13T14:53:57.167Z,98237.09
2023-01-13T14:56:42.019Z,98225.41
2023-01-13T14:59:44.058Z,98229.28
2023-01-13T15:02:37.739Z,98231.94
2023-01-13T15:05:19.230Z,98232.38
2023-01-13T15:07:54.521Z,98230.28
2023-01-13T15:10:30.265Z,98235.09
2023-01-13T15:12:58.973Z,98245.41
2023-01-13T15:15:38.989Z,98251.84
2023-01-13T15:18:13.570Z,98258.53
2023-01-13T15:20:41.122Z,98253.13
2023-01-13T15:23:07.628Z,98254.47
2023-01-13T15:25:44.077Z,98261.41
2023-01-13T15:28:18.884Z,98254.63
2023-01-13T15:30:45.763Z,98268.75
2023-01-13T15:33:13.365Z,98277.22
2023-01-13T15:35:43.886Z,98288.91
2023-01-13T15:38:13.247Z,98294.25
2023-01-13T15:40:40.681Z,98288.44
2023-01-13T15:43:31.679Z,98286.47
2023-01-13T15:46:16.604Z,98300.69
2023-01-13T15:48:43.199Z,98323.41
2023-01-13T15:51:11.911Z,98366.91
2023-01-13T15:53:41.931Z,98365.78
2023-01-13T15:56:18.946Z,98364.94
2023-01-13T15:58:45.399Z,98361.25
2023-01-13T16:01:13.146Z,98364.25
2023-01-13T16:03:39.693Z,98369.72
2023-01-13T16:06:21.185Z,98371.19
2023-01-13T16:08:47.676Z,98365.84
2023-01-13T16:11:14.248Z,98378.47
2023-01-13T16:13:40.757Z,98377.16
2023-01-13T16:16:37.176Z,98381.41
2023-01-13T16:19:03.819Z,98384.22
2023-01-13T16:21:30.357Z,98380.59
2023-01-13T16:23:56.814Z,98390.78
2023-01-13T16:26:25.961Z,98387.50
2023-01-13T16:28:54.902Z,98395.19
2023-01-13T16:31:31.850Z,98393.84
2023-01-13T16:34:00.527Z,98392.09
2023-01-13T16:36:42.245Z,98397.66
2023-01-13T16:39:21.494Z,98413.53
2023-01-13T16:41:48.484Z,98418.31
2023-01-13T16:44:14.981Z,98416.66
2023-01-13T16:46:44.459Z,98420.75
2023-01-13T16:49:14.056Z,98416.16
2023-01-13T16:51:41.293Z,98429.13
2023-01-13T16:54:08.062Z,98429.13
2023-01-13T16:56:36.471Z,98435.81
2023-01-13T16:59:08.584Z,98439.41
2023-01-13T17:01:38.391Z,98441.72
2023-01-13T17:04:06.111Z,98444.84
2023-01-13T17:06:37.541Z,98446.13
2023-01-13T17:09:07.075Z,98450.19
2023-01-13T17:11:34.161Z,98452.00
2023-01-13T17:14:00.691Z,98450.19
2023-01-13T17:16:38.007Z,98459.50
2023-01-13T17:19:04.550Z,98459.69
2023-01-13T17:21:31.036Z,98458.19
2023-01-13T17:23:57.738Z,98467.66
2023-01-13T17:26:38.164Z,98472.91
2023-01-13T17:29:07.326Z,98470.94
2023-01-13T17:31:35.521Z,98474.38
2023-01-13T17:34:03.978Z,98481.41
2023-01-13T17:36:31.179Z,98489.25
2023-01-13T17:38:58.316Z,98485.81
2023-01-13T17:41:25.757Z,98493.19
2023-01-13T17:43:53.556Z,98491.06
2023-01-13T17:46:22.498Z,98490.25
2023-01-13T17:48:51.294Z,98494.47
2023-01-13T17:51:19.190Z,98496.09
2023-01-13T17:53:45.939Z,98499.19
2023-01-13T17:56:14.808Z,98502.00
2023-01-13T17:58:41.849Z,98509.69
2023-01-13T18:01:10.023Z,98518.88
2023-01-13T18:03:38.356Z,98522.81
2023-01-13T18:06:11.954Z,98511.53
2023-01-13T18:08:38.437Z,98519.72
2023-01-13T18:11:05.221Z,98530.56
2023-01-13T18:13:33.819Z,98537.94
2023-01-13T18:16:11.297Z,98548.44
2023-01-13T18:18:39.423Z,98537.47
2023-01-13T18:21:25.446Z,98547.63
2023-01-13T18:24:15.074Z,98552.06
2023-01-13T18:27:00.673Z,98556.28
2023-01-13T18:29:27.201Z,98558.09
2023-01-13T18:31:53.664Z,98565.00
2023-01-13T18:34:20.999Z,98564.00
2023-01-13T18:36:47.521Z,98575.31
2023-01-13T18:39:14.039Z,98571.69
2023-01-13T18:41:58.809Z,98577.91
2023-01-13T18:44:25.390Z,98581.84
2023-01-13T18:46:51.850Z,98576.78
2023-01-13T18:49:18.349Z,98572.88
2023-01-13T18:51:44.815Z,98569.38
2023-01-13T18:54:11.333Z,98574.66
2023-01-13T18:56:37.932Z,98565.34
2023-01-13T18:59:04.855Z,98564.84
2023-01-13T19:01:31.581Z,98579.44
2023-01-13T19:04:02.694Z,98571.88
2023-01-13T19:06:33.777Z,98572.38
2023-01-13T19:09:08.169Z,98587.94
2023-01-13T19:11:36.093Z,98579.56
2023-01-13T19:14:03.409Z,98585.63
2023-01-13T19:16:30.052Z,98591.66
2023-01-13T19:18:56.578Z,98583.81
2023-01-13T19:21:24.168Z,98595.28
2023-01-13T19:23:55.940Z,98601.69
2023-01-13T19:26:22.737Z,98610.88
2023-01-13T19:28:50.418Z,98623.63
2023-01-13T19:31:17.242Z,98634.28
2023-01-13T19:33:43.796Z,98631.66
2023-01-13T19:36:10.590Z,98637.72
2023-01-13T19:38:37.447Z,98639.38
2023-01-13T19:41:28.053Z,98637.56
2023-01-13T19:44:14.723Z,98645.09
2023-01-13T19:46:41.314Z,98644.47
2023-01-13T19:49:08.113Z,98655.44
2023-01-13T19:51:34.578Z,98646.91
2023-01-13T19:54:01.551Z,98664.63
2023-01-13T19:56:29.403Z,98658.88
2023-01-13T19:58:56.201Z,98666.59
2023-01-13T20:01:30.196Z,98657.72
2023-01-13T20:04:02.741Z,98665.75
2023-01-13T20:06:31.362Z,98657.22
2023-01-13T20:08:58.254Z,98664.47
2023-01-13T20:11:31.049Z,98671.66
2023-01-13T20:13:58.967Z,98678.56
2023-01-13T20:16:26.458Z,98677.56
2023-01-13T20:18:53.101Z,98678.56
2023-01-13T20:21:19.934Z,98682.31
2023-01-13T20:23:52.912Z,98687.56
2023-01-13T20:26:20.977Z,98678.06
2023-01-13T20:28:47.969Z,98684.28
2023-01-13T20:31:15.146Z,98674.44
2023-01-13T20:33:42.341Z,98682.00
2023-01-13T20:36:27.258Z,98678.88
2023-01-13T20:39:01.550Z,98695.25
2023-01-13T20:41:46.635Z,98693.47
2023-01-13T20:44:13.542Z,98699.53
2023-01-13T20:46:42.092Z,98696.41
2023-01-13T20:49:13.409Z,98684.75
2023-01-13T20:51:40.440Z,98694.44
2023-01-13T20:54:07.439Z,98682.63
2023-01-13T20:56:34.244Z,98688.06
2023-01-13T20:59:00.955Z,98689.69
2023-01-13T21:01:27.967Z,98695.09
2023-01-13T21:03:58.853Z,98692.63
2023-01-13T21:06:26.452Z,98693.47
2023-01-13T21:08:54.265Z,98703.78
2023-01-13T21:11:41.425Z,98701.00
2023-01-13T21:14:35.907Z,98701.97
2023-01-13T21:17:03.253Z,98705.28
2023-01-13T21:19:30.055Z,98706.63
2023-01-13T21:21:57.191Z,98707.91
2023-01-13T21:24:24.412Z,98713.97
2023-01-13T21:26:54.857Z,98704.44
2023-01-13T21:29:22.829Z,98706.91
2023-01-13T21:31:49.365Z,98710.19
2023-01-13T21:34:15.866Z,98710.84
2023-01-13T21:36:42.408Z,98714.78
2023-01-13T21:39:09.275Z,98714.50
2023-01-13T21:41:54.488Z,98712.31
2023-01-13T21:44:40.677Z,98718.03
2023-01-13T21:47:37.771Z,98708.88
2023-01-13T21:50:07.308Z,98734.78
2023-01-13T21:52:33.774Z,98717.72
2023-01-13T21:55:18.988Z,98715.09
2023-01-13T21:57:49.835Z,98726.09
2023-01-13T22:00:18.162Z,98727.91
2023-01-13T22:02:45.084Z,98733.13
2023-01-13T22:05:13.904Z,98731.66
2023-01-13T22:07:40.656Z,98733.63
2023-01-13T22:10:13.979Z,98741.47
2023-01-13T22:12:40.596Z,98732.63
2023-01-13T22:15:08.149Z,98740.78
2023-01-13T22:17:34.661Z,98738.50
2023-01-13T22:20:01.391Z,98732.78
2023-01-13T22:22:29.129Z,98736.38
2023-01-13T22:24:55.659Z,98741.47
2023-01-13T22:27:24.915Z,98738.16
2023-01-13T22:29:52.661Z,98735.72
2023-01-13T22:32:20.687Z,98740.94
2023-01-13T22:34:47.921Z,98728.31
2023-01-13T22:37:14.902Z,98744.69
2023-01-13T22:39:41.617Z,98750.94
2023-01-13T22:42:10.053Z,98731.91
2023-01-13T22:44:36.591Z,98750.25
2023-01-13T22:47:03.127Z,98763.34
2023-01-13T22:49:29.568Z,98757.31
2023-01-13T22:51:56.090Z,98743.28
2023-01-13T22:54:22.575Z,98751.78
2023-01-13T22:56:49.060Z,98763.75
2023-01-13T22:59:16.501Z,98761.44
2023-01-13T23:01:43.592Z,98756.69
2023-01-13T23:04:13.050Z,98760.63
2023-01-13T23:06:40.244Z,98764.06
2023-01-13T23:09:07.667Z,98770.59
2023-01-13T23:11:34.387Z,98765.53
2023-01-13T23:14:03.887Z,98774.34
2023-01-13T23:16:33.600Z,98774.84
2023-01-13T23:19:00.107Z,98771.41
2023-01-13T23:21:29.810Z,98774.81
2023-01-13T23:23:58.650Z,98773.34
2023-01-13T23:26:26.318Z,98775.28
2023-01-13T23:28:53.006Z,98774.25
2023-01-13T23:31:21.854Z,98765.44
2023-01-13T23:33:48.615Z,98772.44
2023-01-13T23:36:21.550Z,98769.16
2023-01-13T23:38:48.469Z,98765.53
2023-01-13T23:41:17.987Z,98761.78
2023-01-13T23:43:49.692Z,98762.22
2023-01-13T23:46:16.827Z,98765.97
2023-01-13T23:48:43.341Z,98760.88
2023-01-13T23:51:12.676Z,98758.44
2023-01-13T23:53:42.040Z,98774.63
2023-01-13T23:56:13.603Z,98773.47
2023-01-13T23:58:40.811Z,98775.88
